Lewes Beach, Delaware
Current Conditions -  °F | °C
As of 9:54 AM on Thursday 30 Oct 2014 (Local Time) from KGED Reporting Station
Few Clouds Few Clouds  
Wind Chill: 12°   Ceiling: Unl
Heat Index: 12°   Visibility: 10mi
Dew Point:   Wind: 6mph
Humidity: 80%   Direction: NA
Pressure: 30.05"   Gusts: NA
Location:  38.7339°N, 75.1733°W
Report Text: KGED 301354Z AUTO VRB05KT 10SM FEW070 12/08 A3005 RMK AO2 SLP173 T01170083 $
Loading
Personal Weather Stations






























Interactive Weather Map
Tropical Storm Tracking
New forecast layout! Learn more

10-Day Weather Forecast

Advertisements
Track Severe Weather on mobile